Time;durP1;ratioP1;P1;durP2;ratioP2;P2;SDS_P1;SDS_P2;PMS_P1;PMS_P2;Temp;Humidity;BMP_temperature;BMP_pressure;BME280_temperature;BME280_humidity;BME280_pressure;Samples;Min_cycle;Max_cycle;Signal;HPM_P1;HPM_P2
2022/12/02 00:01:12;;;;;;;;;33.75;31.50;;;;;-147.17;100.00;-15917.19;5026717;28;51735;-54
2022/12/02 00:03:38;;;;;;;;;46.25;37.50;;;;;-147.17;100.00;-15917.19;5030866;28;51151;-56
2022/12/02 00:06:04;;;;;;;;;31.75;29.00;;;;;-147.17;100.00;-15917.19;5029424;28;52884;-56
2022/12/02 00:08:32;;;;;;;;;37.00;34.25;;;;;-147.17;100.00;-15917.19;5028434;28;51111;-57
2022/12/02 00:11:01;;;;;;;;;40.75;35.75;;;;;-147.17;100.00;-15917.19;5032537;28;51218;-56
2022/12/02 00:13:42;;;;;;;;;35.00;34.50;;;;;-147.17;100.00;-15917.19;5028735;28;51174;-56
2022/12/02 00:16:19;;;;;;;;;38.75;36.75;;;;;-147.17;100.00;-15917.19;5021367;28;51830;-54
2022/12/02 00:18:45;;;;;;;;;25.00;16.25;;;;;-147.17;100.00;-15917.19;5031641;28;51239;-55
2022/12/02 00:21:10;;;;;;;;;39.50;34.50;;;;;-147.17;100.00;-15917.19;5031127;28;51058;-55
2022/12/02 00:23:35;;;;;;;;;34.75;33.25;;;;;-147.17;100.00;-15917.19;5033137;28;51283;-55
2022/12/02 00:26:01;;;;;;;;;43.50;36.75;;;;;-147.17;100.00;-15917.19;5028154;28;52005;-55
2022/12/02 00:28:26;;;;;;;;;44.00;37.00;;;;;-147.17;100.00;-15917.19;5025405;28;51285;-56
2022/12/02 00:30:51;;;;;;;;;37.75;36.25;;;;;-147.17;100.00;-15917.19;5028897;28;51303;-54
2022/12/02 00:33:17;;;;;;;;;44.75;37.50;;;;;-147.17;100.00;-15917.19;5028418;28;51148;-55
2022/12/02 00:35:42;;;;;;;;;41.00;36.75;;;;;-147.17;100.00;-15917.19;5030171;28;51660;-55
2022/12/02 00:38:08;;;;;;;;;40.00;38.25;;;;;-147.17;100.00;-15917.19;5031678;28;51111;-55
2022/12/02 00:40:33;;;;;;;;;46.00;37.00;;;;;-147.17;100.00;-15917.19;5028919;28;51350;-58
2022/12/02 00:46:30;;;;;;;;;39.50;37.25;;;;;-147.17;100.00;-15917.19;5019769;28;51286;-56
2022/12/02 00:48:28;;;;;;;;;34.25;31.75;;;;;-147.17;100.00;-15917.19;5030735;28;51159;-53
2022/12/02 00:50:53;;;;;;;;;39.50;35.50;;;;;-147.17;100.00;-15917.19;5030398;28;51138;-53
2022/12/02 00:53:18;;;;;;;;;43.00;38.25;;;;;-147.17;100.00;-15917.19;5018222;28;51717;-53
2022/12/02 00:55:44;;;;;;;;;43.00;37.75;;;;;-147.17;100.00;-15917.19;5029699;28;51857;-53
2022/12/02 00:58:09;;;;;;;;;42.00;38.75;;;;;-147.17;100.00;-15917.19;5031191;28;51005;-54
2022/12/02 01:00:37;;;;;;;;;31.00;29.25;;;;;-147.17;100.00;-15917.19;5031529;28;51275;-54
2022/12/02 01:03:03;;;;;;;;;40.25;33.75;;;;;-147.17;100.00;-15917.19;5032452;28;51185;-52
2022/12/02 01:05:28;;;;;;;;;42.25;36.25;;;;;-147.17;100.00;-15917.19;5029397;28;52126;-55
2022/12/02 01:07:53;;;;;;;;;38.50;35.25;;;;;-147.17;100.00;-15917.19;5029042;28;51141;-54
2022/12/02 01:10:19;;;;;;;;;37.75;35.75;;;;;-147.17;100.00;-15917.19;5030602;28;54871;-52
2022/12/02 01:12:44;;;;;;;;;44.50;39.50;;;;;-147.17;100.00;-15917.19;5032546;28;51196;-51
2022/12/02 01:15:10;;;;;;;;;42.50;38.75;;;;;-147.17;100.00;-15917.19;5023196;28;51646;-52
2022/12/02 01:17:35;;;;;;;;;43.00;37.25;;;;;-147.17;100.00;-15917.19;5030186;28;51020;-54
2022/12/02 01:20:01;;;;;;;;;42.50;36.50;;;;;-147.17;100.00;-15917.19;5026993;28;51692;-54
2022/12/02 01:22:26;;;;;;;;;46.25;39.50;;;;;-147.17;100.00;-15917.19;5024912;28;51266;-55
2022/12/02 01:24:51;;;;;;;;;46.00;40.00;;;;;-147.17;100.00;-15917.19;5031293;28;51610;-53
2022/12/02 01:27:17;;;;;;;;;44.75;39.50;;;;;-147.17;100.00;-15917.19;5027793;28;50998;-55
2022/12/02 01:29:42;;;;;;;;;48.25;39.50;;;;;-147.17;100.00;-15917.19;5031289;28;51153;-52
2022/12/02 01:32:07;;;;;;;;;38.25;36.75;;;;;-147.17;100.00;-15917.19;5025744;28;51220;-53
2022/12/02 01:34:33;;;;;;;;;40.25;36.25;;;;;-147.17;100.00;-15917.19;5028982;28;51880;-52
2022/12/02 01:36:58;;;;;;;;;46.00;39.25;;;;;-147.17;100.00;-15917.19;5029315;28;51222;-52
2022/12/02 01:39:23;;;;;;;;;38.25;37.00;;;;;-147.17;100.00;-15917.19;5029423;28;51085;-53
2022/12/02 01:41:49;;;;;;;;;40.25;36.75;;;;;-147.17;100.00;-15917.19;5032650;28;51043;-53
2022/12/02 01:44:14;;;;;;;;;49.50;41.25;;;;;-147.17;100.00;-15917.19;5028738;28;50969;-53
2022/12/02 01:46:41;;;;;;;;;43.50;40.25;;;;;-147.17;100.00;-15917.19;5039207;28;50946;-54
2022/12/02 01:49:06;;;;;;;;;47.50;41.00;;;;;-147.17;100.00;-15917.19;5027714;28;51144;-53
2022/12/02 01:51:32;;;;;;;;;47.50;41.00;;;;;-147.17;100.00;-15917.19;5027604;28;51177;-53
2022/12/02 01:53:57;;;;;;;;;46.25;40.25;;;;;-147.17;100.00;-15917.19;5028632;28;51282;-51
2022/12/02 01:56:26;;;;;;;;;36.50;33.00;;;;;-147.17;100.00;-15917.19;5027913;28;51217;-54
2022/12/02 01:58:52;;;;;;;;;45.75;38.50;;;;;-147.17;100.00;-15917.19;5023541;28;51372;-53
2022/12/02 02:01:25;;;;;;;;;49.75;40.75;;;;;-147.17;100.00;-15917.19;5030676;28;51300;-55
2022/12/02 02:03:51;;;;;;;;;39.50;34.25;;;;;-147.17;100.00;-15917.19;5022501;28;53212;-53
2022/12/02 02:06:17;;;;;;;;;46.75;38.50;;;;;-147.17;100.00;-15917.19;5031015;28;51108;-54
2022/12/02 02:08:42;;;;;;;;;39.50;36.25;;;;;-147.17;100.00;-15917.19;5026900;28;51136;-54
2022/12/02 02:11:07;;;;;;;;;46.75;41.25;;;;;-147.17;100.00;-15917.19;5027390;28;51175;-54
2022/12/02 02:13:32;;;;;;;;;37.00;36.25;;;;;-147.17;100.00;-15917.19;5031927;28;51735;-54
2022/12/02 02:15:58;;;;;;;;;43.75;40.50;;;;;-147.17;100.00;-15917.19;5029760;28;51209;-54
2022/12/02 02:18:23;;;;;;;;;50.75;40.75;;;;;-147.17;100.00;-15917.19;5019423;28;51297;-54
2022/12/02 02:20:49;;;;;;;;;44.25;39.25;;;;;-147.17;100.00;-15917.19;5028713;28;51534;-54
2022/12/02 02:23:23;;;;;;;;;44.25;38.25;;;;;-147.17;100.00;-15917.19;5018345;28;51451;-53
2022/12/02 02:25:51;;;;;;;;;48.75;41.00;;;;;-147.17;100.00;-15917.19;5030226;28;51054;-54
2022/12/02 02:28:18;;;;;;;;;43.50;35.25;;;;;-147.17;100.00;-15917.19;5030969;28;51109;-54
2022/12/02 02:30:44;;;;;;;;;48.00;39.75;;;;;-147.17;100.00;-15917.19;5023664;28;51192;-53
2022/12/02 02:33:12;;;;;;;;;45.75;40.50;;;;;-147.17;100.00;-15917.19;5023200;28;52981;-55
2022/12/02 02:35:39;;;;;;;;;46.50;40.00;;;;;-147.17;100.00;-15917.19;5027026;28;51114;-55
2022/12/02 02:38:10;;;;;;;;;43.00;36.00;;;;;-147.17;100.00;-15917.19;5030259;28;52206;-55
2022/12/02 02:40:36;;;;;;;;;38.50;35.75;;;;;-147.17;100.00;-15917.19;5025765;28;51517;-55
2022/12/02 02:43:03;;;;;;;;;43.50;37.75;;;;;-147.17;100.00;-15917.19;5026902;28;51813;-54
2022/12/02 02:45:32;;;;;;;;;35.25;32.75;;;;;-147.17;100.00;-15917.19;5018054;28;51052;-55
2022/12/02 02:47:58;;;;;;;;;42.50;37.25;;;;;-147.17;100.00;-15917.19;5029011;28;51036;-54
2022/12/02 02:50:26;;;;;;;;;38.75;35.50;;;;;-147.17;100.00;-15917.19;5027030;28;51323;-55
2022/12/02 02:52:52;;;;;;;;;43.25;36.50;;;;;-147.17;100.00;-15917.19;5021787;28;51706;-55
2022/12/02 02:55:22;;;;;;;;;44.50;37.25;;;;;-147.17;100.00;-15917.19;5025480;28;50991;-55
2022/12/02 02:57:47;;;;;;;;;41.75;37.00;;;;;-147.17;100.00;-15917.19;5029664;28;51438;-53
2022/12/02 03:00:14;;;;;;;;;43.25;38.50;;;;;-147.17;100.00;-15917.19;5019682;28;51124;-54
2022/12/02 03:02:42;;;;;;;;;40.50;35.25;;;;;-147.17;100.00;-15917.19;5028540;28;51624;-53
2022/12/02 03:05:08;;;;;;;;;35.00;33.25;;;;;-147.17;100.00;-15917.19;5030333;28;50867;-54
2022/12/02 03:07:34;;;;;;;;;46.50;40.00;;;;;-147.17;100.00;-15917.19;5030438;28;51145;-55
2022/12/02 03:10:00;;;;;;;;;42.75;38.50;;;;;-147.17;100.00;-15917.19;5021059;28;51306;-56
2022/12/02 03:12:26;;;;;;;;;42.75;37.75;;;;;-147.17;100.00;-15917.19;5023834;28;51192;-53
2022/12/02 03:14:52;;;;;;;;;42.00;36.75;;;;;-147.17;100.00;-15917.19;5013981;28;51105;-55
2022/12/02 03:17:17;;;;;;;;;38.50;36.25;;;;;-147.17;100.00;-15917.19;5017659;28;51096;-55
2022/12/02 03:19:44;;;;;;;;;41.75;38.25;;;;;-147.17;100.00;-15917.19;5017204;28;51130;-55
2022/12/02 03:22:10;;;;;;;;;48.50;41.25;;;;;-147.17;100.00;-15917.19;5018441;28;51124;-53
2022/12/02 03:24:36;;;;;;;;;37.00;30.75;;;;;-147.17;100.00;-15917.19;5016803;28;51223;-53
2022/12/02 03:27:04;;;;;;;;;43.50;39.00;;;;;-147.17;100.00;-15917.19;5022302;28;51103;-55
2022/12/02 03:29:29;;;;;;;;;40.25;35.00;;;;;-147.17;100.00;-15917.19;5020571;28;50912;-54
2022/12/02 03:31:57;;;;;;;;;52.25;40.75;;;;;-147.17;100.00;-15917.19;5036017;28;52677;-54
2022/12/02 03:34:22;;;;;;;;;46.25;40.00;;;;;-147.17;100.00;-15917.19;5030757;28;51142;-54
2022/12/02 03:36:47;;;;;;;;;42.50;37.00;;;;;-147.17;100.00;-15917.19;5032854;28;51120;-53
2022/12/02 03:39:13;;;;;;;;;32.00;28.75;;;;;-147.17;100.00;-15917.19;5028414;28;51412;-52
2022/12/02 03:41:39;;;;;;;;;44.75;39.00;;;;;-147.17;100.00;-15917.19;5037646;28;51627;-52
2022/12/02 03:44:05;;;;;;;;;43.00;37.50;;;;;-147.17;100.00;-15917.19;5030309;28;52383;-54
2022/12/02 03:46:31;;;;;;;;;48.50;40.25;;;;;-147.17;100.00;-15917.19;5033485;28;51227;-54
2022/12/02 03:48:58;;;;;;;;;47.75;41.25;;;;;-147.17;100.00;-15917.19;5037650;28;51679;-53
2022/12/02 03:51:24;;;;;;;;;45.75;40.75;;;;;-147.17;100.00;-15917.19;5037709;28;51476;-53
2022/12/02 03:53:50;;;;;;;;;39.75;36.25;;;;;-147.17;100.00;-15917.19;5031255;28;51068;-54
2022/12/02 03:56:15;;;;;;;;;42.00;35.50;;;;;-147.17;100.00;-15917.19;5034558;28;51354;-53
2022/12/02 03:58:46;;;;;;;;;44.25;40.00;;;;;-147.17;100.00;-15917.19;5035828;28;52650;-53
2022/12/02 04:01:11;;;;;;;;;50.75;41.00;;;;;-147.17;100.00;-15917.19;5030025;28;52479;-53
2022/12/02 04:03:37;;;;;;;;;42.25;35.50;;;;;-147.17;100.00;-15917.19;5030984;28;51047;-53
2022/12/02 04:06:02;;;;;;;;;46.25;40.50;;;;;-147.17;100.00;-15917.19;5035328;28;51218;-54
2022/12/02 04:08:28;;;;;;;;;47.50;39.00;;;;;-147.17;100.00;-15917.19;5032785;28;51060;-54
2022/12/02 04:10:54;;;;;;;;;40.00;34.75;;;;;-147.17;100.00;-15917.19;5036340;28;52529;-54
2022/12/02 04:13:20;;;;;;;;;40.75;36.75;;;;;-147.17;100.00;-15917.19;5031571;28;51457;-55
2022/12/02 04:15:45;;;;;;;;;40.25;37.25;;;;;-147.17;100.00;-15917.19;5028555;28;51076;-55
2022/12/02 04:18:10;;;;;;;;;47.25;39.50;;;;;-147.17;100.00;-15917.19;5019903;28;51143;-54
2022/12/02 04:20:36;;;;;;;;;43.75;37.00;;;;;-147.17;100.00;-15917.19;5030036;28;52579;-55
2022/12/02 04:23:02;;;;;;;;;45.50;39.25;;;;;-147.17;100.00;-15917.19;5031229;28;51189;-55
2022/12/02 04:25:27;;;;;;;;;47.00;39.00;;;;;-147.17;100.00;-15917.19;5026248;28;51097;-54
2022/12/02 04:27:52;;;;;;;;;44.75;39.50;;;;;-147.17;100.00;-15917.19;5032608;28;51091;-54
2022/12/02 04:30:18;;;;;;;;;39.75;35.25;;;;;-147.17;100.00;-15917.19;5026882;28;51191;-54
2022/12/02 04:32:43;;;;;;;;;50.50;41.25;;;;;-147.17;100.00;-15917.19;5032445;28;51825;-54
2022/12/02 04:35:08;;;;;;;;;46.00;40.00;;;;;-147.17;100.00;-15917.19;5022718;28;51138;-54
2022/12/02 04:37:37;;;;;;;;;48.25;37.75;;;;;-147.17;100.00;-15917.19;5031141;28;51012;-55
2022/12/02 04:40:03;;;;;;;;;44.50;38.50;;;;;-147.17;100.00;-15917.19;5036300;28;51017;-54
2022/12/02 04:42:28;;;;;;;;;47.00;39.25;;;;;-147.17;100.00;-15917.19;5031503;28;51189;-55
2022/12/02 04:44:53;;;;;;;;;45.00;38.00;;;;;-147.17;100.00;-15917.19;5033002;28;51214;-53
2022/12/02 04:47:19;;;;;;;;;44.00;37.50;;;;;-147.17;100.00;-15917.19;5034167;28;52434;-51
2022/12/02 04:49:44;;;;;;;;;38.50;33.00;;;;;-147.17;100.00;-15917.19;5026684;28;52052;-54
2022/12/02 04:52:09;;;;;;;;;43.75;37.25;;;;;-147.17;100.00;-15917.19;5028210;28;50946;-55
2022/12/02 04:54:35;;;;;;;;;38.25;37.00;;;;;-147.17;100.00;-15917.19;5030628;28;51047;-54
2022/12/02 04:57:00;;;;;;;;;47.00;40.25;;;;;-147.17;100.00;-15917.19;5030483;28;51009;-53
2022/12/02 04:59:25;;;;;;;;;45.25;37.00;;;;;-147.17;100.00;-15917.19;5022922;28;51901;-55
2022/12/02 05:01:51;;;;;;;;;40.75;37.50;;;;;-147.17;100.00;-15917.19;5031061;28;50982;-54
2022/12/02 05:04:16;;;;;;;;;40.25;37.50;;;;;-147.17;100.00;-15917.19;5018376;28;51129;-55
2022/12/02 05:06:41;;;;;;;;;52.25;41.25;;;;;-147.17;100.00;-15917.19;5026802;28;51338;-53
2022/12/02 05:09:07;;;;;;;;;51.25;42.75;;;;;-147.17;100.00;-15917.19;5023979;28;52459;-55
2022/12/02 05:11:32;;;;;;;;;45.00;39.25;;;;;-147.17;100.00;-15917.19;5031019;28;51208;-56
2022/12/02 05:13:57;;;;;;;;;47.25;37.50;;;;;-147.17;100.00;-15917.19;5024603;28;51156;-54
2022/12/02 05:16:23;;;;;;;;;44.50;37.00;;;;;-147.17;100.00;-15917.19;5025189;28;51681;-55
2022/12/02 05:18:48;;;;;;;;;46.25;38.25;;;;;-147.17;100.00;-15917.19;5033221;28;51758;-54
2022/12/02 05:21:13;;;;;;;;;50.25;38.25;;;;;-147.17;100.00;-15917.19;5018421;28;52963;-56
2022/12/02 05:23:39;;;;;;;;;49.25;39.75;;;;;-147.17;100.00;-15917.19;5014823;28;51223;-54
2022/12/02 05:26:05;;;;;;;;;49.75;40.00;;;;;-147.17;100.00;-15917.19;5022944;28;51110;-58
2022/12/02 05:28:30;;;;;;;;;48.75;41.00;;;;;-147.17;100.00;-15917.19;5027581;28;51938;-54
2022/12/02 05:30:55;;;;;;;;;49.75;40.75;;;;;-147.17;100.00;-15917.19;5018768;28;50943;-54
2022/12/02 05:33:21;;;;;;;;;40.25;33.00;;;;;-147.17;100.00;-15917.19;5031037;28;51243;-52
2022/12/02 05:35:46;;;;;;;;;43.00;38.50;;;;;-147.17;100.00;-15917.19;5026835;28;51290;-54
2022/12/02 05:38:11;;;;;;;;;46.75;39.75;;;;;-147.17;100.00;-15917.19;5012891;28;55007;-51
2022/12/02 05:40:37;;;;;;;;;40.25;34.25;;;;;-147.17;100.00;-15917.19;5033499;28;51093;-54
2022/12/02 05:43:14;;;;;;;;;53.00;41.00;;;;;-147.17;100.00;-15917.19;5015451;28;50961;-51
2022/12/02 05:45:39;;;;;;;;;44.50;40.50;;;;;-147.17;100.00;-15917.19;5026922;28;51061;-54
2022/12/02 05:48:09;;;;;;;;;50.75;40.75;;;;;-147.17;100.00;-15917.19;5022379;28;51875;-53
2022/12/02 05:50:39;;;;;;;;;51.00;41.00;;;;;-147.17;100.00;-15917.19;5027693;28;51155;-54
2022/12/02 05:53:06;;;;;;;;;43.75;39.25;;;;;-147.17;100.00;-15917.19;5022987;28;51177;-55
2022/12/02 05:55:34;;;;;;;;;43.25;39.50;;;;;-147.17;100.00;-15917.19;5030006;28;52650;-52
2022/12/02 05:58:01;;;;;;;;;48.25;43.25;;;;;-147.17;100.00;-15917.19;5032564;28;51766;-54
2022/12/02 06:00:27;;;;;;;;;48.75;39.00;;;;;-147.17;100.00;-15917.19;5026187;28;51183;-55
2022/12/02 06:03:00;;;;;;;;;45.00;38.25;;;;;-147.17;100.00;-15917.19;5031650;28;51112;-52
2022/12/02 06:05:30;;;;;;;;;43.50;38.25;;;;;-147.17;100.00;-15917.19;5025577;28;51220;-52
2022/12/02 06:08:07;;;;;;;;;49.75;40.50;;;;;-147.17;100.00;-15917.19;5019566;28;51494;-53
2022/12/02 06:10:37;;;;;;;;;52.25;42.00;;;;;-147.17;100.00;-15917.19;5024283;28;51081;-57
2022/12/02 06:13:23;;;;;;;;;48.25;41.25;;;;;-147.17;100.00;-15917.19;5026605;28;51094;-55
2022/12/02 06:15:51;;;;;;;;;48.25;39.50;;;;;-147.17;100.00;-15917.19;5022307;28;51067;-53
2022/12/02 06:18:19;;;;;;;;;50.25;42.00;;;;;-147.17;100.00;-15917.19;5015118;28;51177;-54
2022/12/02 06:20:49;;;;;;;;;51.25;44.25;;;;;-147.17;100.00;-15917.19;5025002;28;51420;-53
2022/12/02 06:23:18;;;;;;;;;57.25;44.00;;;;;-147.17;100.00;-15917.19;5027503;28;50927;-54
2022/12/02 06:25:45;;;;;;;;;47.75;38.75;;;;;-147.17;100.00;-15917.19;5021434;28;51079;-54
2022/12/02 06:28:13;;;;;;;;;56.50;42.00;;;;;-147.17;100.00;-15917.19;5032302;28;52242;-53
2022/12/02 06:30:39;;;;;;;;;48.50;41.00;;;;;-147.17;100.00;-15917.19;5026567;28;51106;-54
2022/12/02 06:33:18;;;;;;;;;54.25;44.25;;;;;-147.17;100.00;-15917.19;5029074;28;51158;-55
2022/12/02 06:35:44;;;;;;;;;36.25;30.50;;;;;-147.17;100.00;-15917.19;5019097;28;51014;-55
2022/12/02 06:38:23;;;;;;;;;52.50;43.50;;;;;-147.17;100.00;-15917.19;5026437;28;51654;-54
2022/12/02 06:40:49;;;;;;;;;49.75;42.00;;;;;-147.17;100.00;-15917.19;5031680;28;51119;-55
2022/12/02 06:43:25;;;;;;;;;55.25;43.25;;;;;-147.17;100.00;-15917.19;5018330;28;51144;-54
2022/12/02 06:45:50;;;;;;;;;41.50;38.00;;;;;-147.17;100.00;-15917.19;5029489;28;51066;-55
2022/12/02 06:48:31;;;;;;;;;40.00;36.00;;;;;-147.17;100.00;-15917.19;5027817;28;51812;-55
2022/12/02 06:51:06;;;;;;;;;51.50;41.75;;;;;-147.17;100.00;-15917.19;5012998;28;50909;-55
2022/12/02 06:53:38;;;;;;;;;50.00;41.50;;;;;-147.17;100.00;-15917.19;5022766;28;51013;-54
2022/12/02 06:56:13;;;;;;;;;55.00;46.50;;;;;-147.17;100.00;-15917.19;5029918;28;51157;-55
2022/12/02 06:58:53;;;;;;;;;52.00;39.50;;;;;-147.17;100.00;-15917.19;5023845;28;51939;-55
2022/12/02 07:01:31;;;;;;;;;56.75;43.75;;;;;-147.17;100.00;-15917.19;5023448;28;51228;-54
2022/12/02 07:04:09;;;;;;;;;31.25;25.50;;;;;-147.17;100.00;-15917.19;5027602;28;51067;-54
2022/12/02 07:06:38;;;;;;;;;48.25;42.50;;;;;-147.17;100.00;-15917.19;5020684;28;51581;-54
2022/12/02 07:09:25;;;;;;;;;45.75;38.25;;;;;-147.17;100.00;-15917.19;5023938;28;51082;-53
2022/12/02 07:11:52;;;;;;;;;56.00;44.25;;;;;-147.17;100.00;-15917.19;5022245;28;51488;-53
2022/12/02 07:14:28;;;;;;;;;48.50;42.25;;;;;-147.17;100.00;-15917.19;5026191;28;51050;-54
2022/12/02 07:17:12;;;;;;;;;49.25;40.75;;;;;-147.17;100.00;-15917.19;5023637;28;51069;-55
2022/12/02 07:19:43;;;;;;;;;62.25;46.25;;;;;-147.17;100.00;-15917.19;5024187;28;51877;-54
2022/12/02 07:22:18;;;;;;;;;51.25;43.25;;;;;-147.17;100.00;-15917.19;5014952;28;51244;-56
2022/12/02 07:25:01;;;;;;;;;48.75;38.00;;;;;-147.17;100.00;-15917.19;5020592;28;51187;-55
2022/12/02 07:27:33;;;;;;;;;53.50;43.00;;;;;-147.17;100.00;-15917.19;5021252;28;51170;-56
2022/12/02 07:29:59;;;;;;;;;52.25;43.25;;;;;-147.17;100.00;-15917.19;5016662;28;52610;-55
2022/12/02 07:32:25;;;;;;;;;46.00;40.50;;;;;-147.17;100.00;-15917.19;5026571;28;51135;-54
2022/12/02 07:34:51;;;;;;;;;54.25;41.75;;;;;-147.17;100.00;-15917.19;5013019;28;51187;-55
2022/12/02 07:37:16;;;;;;;;;59.00;45.75;;;;;-147.17;100.00;-15917.19;5024987;28;51022;-53
2022/12/02 07:39:42;;;;;;;;;50.50;40.75;;;;;-147.17;100.00;-15917.19;5030031;28;51668;-56
2022/12/02 07:42:07;;;;;;;;;55.75;45.75;;;;;-147.17;100.00;-15917.19;5029575;28;51175;-55
2022/12/02 07:44:32;;;;;;;;;46.50;41.00;;;;;-147.17;100.00;-15917.19;5021158;28;51075;-54
2022/12/02 07:46:58;;;;;;;;;58.75;44.50;;;;;-147.17;100.00;-15917.19;5021664;28;51478;-55
2022/12/02 07:49:23;;;;;;;;;53.00;44.50;;;;;-147.17;100.00;-15917.19;5021671;28;52200;-55
2022/12/02 07:51:49;;;;;;;;;47.25;40.25;;;;;-147.17;100.00;-15917.19;5023111;28;51376;-56
2022/12/02 07:54:14;;;;;;;;;57.75;46.00;;;;;-147.17;100.00;-15917.19;5027576;28;51012;-56
2022/12/02 07:56:39;;;;;;;;;57.75;44.50;;;;;-147.17;100.00;-15917.19;5023123;28;51139;-55
2022/12/02 07:59:05;;;;;;;;;54.50;44.25;;;;;-147.17;100.00;-15917.19;5022874;28;51607;-54
2022/12/02 08:01:30;;;;;;;;;57.50;46.50;;;;;-147.17;100.00;-15917.19;5025007;28;51386;-52
2022/12/02 08:03:56;;;;;;;;;51.75;41.50;;;;;-147.17;100.00;-15917.19;5022103;28;51251;-56
2022/12/02 08:06:21;;;;;;;;;44.00;40.25;;;;;-147.17;100.00;-15917.19;5019278;28;51248;-56
2022/12/02 08:08:47;;;;;;;;;61.50;49.25;;;;;-147.17;100.00;-15917.19;5023979;28;51062;-56
2022/12/02 08:11:12;;;;;;;;;54.75;44.75;;;;;-147.17;100.00;-15917.19;5021370;28;51447;-56
2022/12/02 08:13:37;;;;;;;;;58.75;46.25;;;;;-147.17;100.00;-15917.19;5029141;28;51764;-55
2022/12/02 08:16:03;;;;;;;;;63.25;49.50;;;;;-147.17;100.00;-15917.19;5029672;28;51270;-56
2022/12/02 08:18:29;;;;;;;;;60.50;46.75;;;;;-147.17;100.00;-15917.19;5024828;28;51171;-56
2022/12/02 08:20:54;;;;;;;;;58.25;47.50;;;;;-147.17;100.00;-15917.19;5026747;28;51116;-56
2022/12/02 08:23:19;;;;;;;;;60.00;48.75;;;;;-147.17;100.00;-15917.19;5024775;28;51329;-55
2022/12/02 08:25:45;;;;;;;;;57.00;46.00;;;;;-147.17;100.00;-15917.19;5024313;28;51455;-55
2022/12/02 08:28:11;;;;;;;;;62.75;48.75;;;;;-147.17;100.00;-15917.19;5015141;28;51194;-56
2022/12/02 08:30:36;;;;;;;;;63.00;50.25;;;;;-147.17;100.00;-15917.19;5019305;28;50946;-57
2022/12/02 08:33:01;;;;;;;;;58.75;46.25;;;;;-147.17;100.00;-15917.19;5014212;28;51145;-56
2022/12/02 08:35:27;;;;;;;;;57.00;45.50;;;;;-147.17;100.00;-15917.19;5015295;28;50887;-55
2022/12/02 08:37:52;;;;;;;;;62.50;51.00;;;;;-147.17;100.00;-15917.19;5012823;28;53725;-55
2022/12/02 08:40:18;;;;;;;;;63.00;49.25;;;;;-147.17;100.00;-15917.19;5022627;28;51015;-57
2022/12/02 08:42:43;;;;;;;;;62.50;47.75;;;;;-147.17;100.00;-15917.19;5013578;28;51279;-56
2022/12/02 08:45:09;;;;;;;;;57.25;44.00;;;;;-147.17;100.00;-15917.19;5014229;28;51263;-57
2022/12/02 08:47:35;;;;;;;;;61.75;48.00;;;;;-147.17;100.00;-15917.19;5014682;28;51976;-55
2022/12/02 08:50:01;;;;;;;;;53.25;43.00;;;;;-147.17;100.00;-15917.19;5017196;28;51283;-56
2022/12/02 08:52:26;;;;;;;;;59.25;47.75;;;;;-147.17;100.00;-15917.19;5018030;28;51179;-55
2022/12/02 08:54:52;;;;;;;;;57.50;48.50;;;;;-147.17;100.00;-15917.19;5022271;28;50883;-56
2022/12/02 08:57:18;;;;;;;;;52.75;44.75;;;;;-147.17;100.00;-15917.19;5014864;28;51909;-56
2022/12/02 08:59:43;;;;;;;;;56.75;48.00;;;;;-147.17;100.00;-15917.19;5014885;28;51175;-57
2022/12/02 09:02:08;;;;;;;;;63.00;52.75;;;;;-147.17;100.00;-15917.19;5026009;28;51072;-57
2022/12/02 09:04:34;;;;;;;;;60.75;48.75;;;;;-147.17;100.00;-15917.19;5017259;28;51066;-58
2022/12/02 09:06:59;;;;;;;;;56.50;45.50;;;;;-147.17;100.00;-15917.19;5014684;28;51981;-55
2022/12/02 09:09:24;;;;;;;;;59.25;46.75;;;;;-147.17;100.00;-15917.19;5014660;28;51191;-57
2022/12/02 09:11:49;;;;;;;;;55.50;43.00;;;;;-147.17;100.00;-15917.19;5013153;28;51028;-58
2022/12/02 09:14:15;;;;;;;;;60.75;48.00;;;;;-147.17;100.00;-15917.19;5014797;28;51137;-57
2022/12/02 09:16:40;;;;;;;;;63.00;49.75;;;;;-147.17;100.00;-15917.19;5024004;28;51150;-55
2022/12/02 09:19:06;;;;;;;;;62.50;50.75;;;;;-147.17;100.00;-15917.19;5033850;28;50927;-56
2022/12/02 09:21:31;;;;;;;;;61.50;48.00;;;;;-147.17;100.00;-15917.19;5033609;28;51152;-55
2022/12/02 09:23:56;;;;;;;;;59.50;47.75;;;;;-147.17;100.00;-15917.19;5032553;28;51281;-56
2022/12/02 09:26:22;;;;;;;;;62.25;49.75;;;;;-147.17;100.00;-15917.19;5032133;28;51964;-55
2022/12/02 09:28:47;;;;;;;;;59.50;48.25;;;;;-147.17;100.00;-15917.19;5022834;28;50955;-57
2022/12/02 09:31:13;;;;;;;;;63.75;51.25;;;;;-147.17;100.00;-15917.19;5013775;28;51112;-55
2022/12/02 09:33:38;;;;;;;;;64.50;50.00;;;;;-147.17;100.00;-15917.19;5014255;28;51023;-56
2022/12/02 09:36:04;;;;;;;;;61.00;49.25;;;;;-147.17;100.00;-15917.19;5020945;28;51856;-57
2022/12/02 09:38:31;;;;;;;;;63.00;50.50;;;;;-147.17;100.00;-15917.19;5033418;28;51049;-55
2022/12/02 09:41:00;;;;;;;;;62.00;49.75;;;;;-147.17;100.00;-15917.19;5033860;28;51049;-55
2022/12/02 09:43:29;;;;;;;;;64.50;49.00;;;;;-147.17;100.00;-15917.19;5034136;28;50963;-56
2022/12/02 09:45:56;;;;;;;;;62.25;50.75;;;;;-147.17;100.00;-15917.19;5033521;28;51652;-56
2022/12/02 09:48:21;;;;;;;;;68.25;52.50;;;;;-147.17;100.00;-15917.19;5033763;28;51143;-55
2022/12/02 09:50:47;;;;;;;;;61.75;51.00;;;;;-147.17;100.00;-15917.19;5033323;28;51250;-57
2022/12/02 09:53:16;;;;;;;;;58.50;46.25;;;;;-147.17;100.00;-15917.19;5022795;28;50907;-59
2022/12/02 09:55:41;;;;;;;;;61.50;49.00;;;;;-147.17;100.00;-15917.19;5012804;28;52025;-56
2022/12/02 09:58:18;;;;;;;;;63.00;52.00;;;;;-147.17;100.00;-15917.19;5013283;28;51051;-54
2022/12/02 10:00:45;;;;;;;;;67.50;52.25;;;;;-147.17;100.00;-15917.19;5018551;28;50912;-56
2022/12/02 10:03:15;;;;;;;;;58.25;46.50;;;;;-147.17;100.00;-15917.19;5021379;28;51175;-53
2022/12/02 10:05:41;;;;;;;;;63.50;48.75;;;;;-147.17;100.00;-15917.19;5011255;28;50973;-56
2022/12/02 10:08:15;;;;;;;;;62.00;50.50;;;;;-147.17;100.00;-15917.19;5021852;28;51101;-55
2022/12/02 10:10:41;;;;;;;;;56.25;45.50;;;;;-147.17;100.00;-15917.19;5013317;28;51250;-55
2022/12/02 10:13:18;;;;;;;;;66.25;50.50;;;;;-147.17;100.00;-15917.19;5013585;28;50884;-55
2022/12/02 10:15:44;;;;;;;;;56.75;45.00;;;;;-147.17;100.00;-15917.19;5016154;28;51974;-54
2022/12/02 10:18:32;;;;;;;;;66.00;50.75;;;;;-147.17;100.00;-15917.19;5019422;28;50989;-57
2022/12/02 10:20:58;;;;;;;;;63.25;51.00;;;;;-147.17;100.00;-15917.19;5020563;28;51129;-53
2022/12/02 10:23:26;;;;;;;;;62.25;49.00;;;;;-147.17;100.00;-15917.19;5028156;28;51242;-56
2022/12/02 10:25:53;;;;;;;;;64.75;51.00;;;;;-147.17;100.00;-15917.19;5019216;28;51694;-57
2022/12/02 10:28:26;;;;;;;;;60.25;47.75;;;;;-147.17;100.00;-15917.19;5032863;28;51004;-56
2022/12/02 10:31:09;;;;;;;;;61.25;49.75;;;;;-147.17;100.00;-15917.19;5033240;28;51045;-56
2022/12/02 10:33:50;;;;;;;;;63.00;51.75;;;;;-147.17;100.00;-15917.19;5033005;28;51226;-55
2022/12/02 10:36:48;;;;;;;;;68.75;53.25;;;;;-147.17;100.00;-15917.19;5032665;28;52087;-56
2022/12/02 10:39:25;;;;;;;;;63.75;51.50;;;;;-147.17;100.00;-15917.19;5031218;28;51359;-56
2022/12/02 10:42:02;;;;;;;;;73.50;52.00;;;;;-147.17;100.00;-15917.19;5022697;28;51083;-56
2022/12/02 10:44:28;;;;;;;;;57.00;46.75;;;;;-147.17;100.00;-15917.19;5012956;28;50891;-55
2022/12/02 10:47:28;;;;;;;;;61.75;50.25;;;;;-147.17;100.00;-15917.19;5012279;28;51187;-54
2022/12/02 10:49:56;;;;;;;;;62.00;50.00;;;;;-147.17;100.00;-15917.19;5021792;28;51021;-56
2022/12/02 10:52:34;;;;;;;;;65.75;51.00;;;;;-147.17;100.00;-15917.19;5027710;28;51073;-54